createdAt,value
2024-02-19T00:01:42.119Z,100738.50
2024-02-19T00:04:08.887Z,100740.22
2024-02-19T00:06:36.027Z,100750.13
2024-02-19T00:09:02.770Z,100743.25
2024-02-19T00:11:30.959Z,100745.03
2024-02-19T00:13:59.183Z,100746.97
2024-02-19T00:16:25.809Z,100751.09
2024-02-19T00:18:52.585Z,100753.25
2024-02-19T00:21:19.360Z,100756.25
2024-02-19T00:23:45.947Z,100759.03
2024-02-19T00:26:14.210Z,100766.41
2024-02-19T00:28:41.031Z,100770.66
2024-02-19T00:31:11.671Z,100767.50
2024-02-19T00:33:39.500Z,100768.44
2024-02-19T00:36:06.538Z,100772.31
2024-02-19T00:38:33.187Z,100777.41
2024-02-19T00:40:59.781Z,100767.84
2024-02-19T00:43:26.881Z,100773.41
2024-02-19T00:45:53.493Z,100784.22
2024-02-19T00:48:20.047Z,100785.59
2024-02-19T00:50:46.585Z,100781.47
2024-02-19T00:53:13.156Z,100786.19
2024-02-19T00:55:39.822Z,100788.50
2024-02-19T00:58:06.421Z,100790.31
2024-02-19T01:00:33.063Z,100785.84
2024-02-19T01:02:59.719Z,100792.16
2024-02-19T01:05:26.474Z,100795.19
2024-02-19T01:07:53.101Z,100802.78
2024-02-19T01:10:20.354Z,100802.69
2024-02-19T01:12:47.034Z,100812.41
2024-02-19T01:15:13.666Z,100816.25
2024-02-19T01:17:40.211Z,100818.13
2024-02-19T01:20:08.601Z,100822.31
2024-02-19T01:22:35.164Z,100833.16
2024-02-19T01:25:02.449Z,100831.69
2024-02-19T01:27:29.817Z,100845.59
2024-02-19T01:29:56.394Z,100847.47
2024-02-19T01:32:24.082Z,100844.69
2024-02-19T01:34:50.742Z,100855.91
2024-02-19T01:37:17.477Z,100855.53
2024-02-19T01:39:44.334Z,100864.47
2024-02-19T01:42:11.369Z,100859.03
2024-02-19T01:44:38.178Z,100860.66
2024-02-19T01:47:04.921Z,100868.56
2024-02-19T01:49:32.454Z,100863.06
2024-02-19T01:52:00.837Z,100877.81
2024-02-19T01:54:27.975Z,100872.69
2024-02-19T01:56:54.707Z,100878.41
2024-02-19T01:59:22.857Z,100890.88
2024-02-19T02:01:50.050Z,100887.91
2024-02-19T02:04:19.752Z,100894.31
2024-02-19T02:06:47.161Z,100908.59
2024-02-19T02:09:13.852Z,100902.81
2024-02-19T02:11:40.396Z,100913.53
2024-02-19T02:14:06.916Z,100915.06
2024-02-19T02:16:34.581Z,100924.53
2024-02-19T02:19:01.244Z,100928.00
2024-02-19T02:21:28.080Z,100929.78
2024-02-19T02:23:54.707Z,100934.28
2024-02-19T02:26:21.292Z,100935.44
2024-02-19T02:28:48.213Z,100950.69
2024-02-19T02:31:15.076Z,100952.97
2024-02-19T02:33:41.896Z,100946.97
2024-02-19T02:36:11.412Z,100963.72
2024-02-19T02:38:38.026Z,100959.72
2024-02-19T02:41:04.702Z,100962.56
2024-02-19T02:43:31.326Z,100968.56
2024-02-19T02:45:57.948Z,100966.53
2024-02-19T02:48:24.857Z,100975.16
2024-02-19T02:50:51.509Z,100971.66
2024-02-19T02:53:18.550Z,100968.19
2024-02-19T02:55:45.119Z,100975.63
2024-02-19T02:58:11.825Z,100982.41
2024-02-19T03:00:38.817Z,100972.75
2024-02-19T03:03:05.589Z,100973.03
2024-02-19T03:05:32.184Z,100987.47
2024-02-19T03:07:59.317Z,100981.75
2024-02-19T03:10:26.046Z,100989.00
2024-02-19T03:12:52.698Z,100990.41
2024-02-19T03:15:19.441Z,100995.41
2024-02-19T03:17:46.371Z,101003.56
2024-02-19T03:20:15.095Z,100992.91
2024-02-19T03:22:44.548Z,100998.72
2024-02-19T03:25:11.423Z,101018.69
2024-02-19T03:27:38.972Z,101017.47
2024-02-19T03:30:07.809Z,101018.63
2024-02-19T03:32:34.488Z,101031.56
2024-02-19T03:35:01.109Z,101038.97
2024-02-19T03:37:27.693Z,101038.44
2024-02-19T03:39:54.328Z,101034.34
2024-02-19T03:42:20.936Z,101039.19
2024-02-19T03:44:48.042Z,101050.09
2024-02-19T03:47:14.663Z,101042.03
2024-02-19T03:49:41.306Z,101065.53
2024-02-19T03:52:08.023Z,101064.63
2024-02-19T03:54:34.626Z,101078.03
2024-02-19T03:57:01.289Z,101078.34
2024-02-19T03:59:27.879Z,101086.44
2024-02-19T04:01:54.542Z,101080.31
2024-02-19T04:04:21.656Z,101096.09
2024-02-19T04:06:48.446Z,101092.53
2024-02-19T04:09:15.111Z,101086.00
2024-02-19T04:11:41.785Z,101098.75
2024-02-19T04:14:08.408Z,101092.47
2024-02-19T04:16:34.973Z,101102.41
2024-02-19T04:19:01.815Z,101103.16
2024-02-19T04:21:28.496Z,101103.94
2024-02-19T04:23:55.123Z,101113.91
2024-02-19T04:26:21.701Z,101112.19
2024-02-19T04:28:48.246Z,101114.84
2024-02-19T04:31:14.962Z,101124.50
2024-02-19T04:33:44.733Z,101121.47
2024-02-19T04:36:11.395Z,101114.59
2024-02-19T04:38:38.003Z,101126.94
2024-02-19T04:41:05.334Z,101133.94
2024-02-19T04:43:31.986Z,101142.38
2024-02-19T04:45:58.577Z,101132.38
2024-02-19T04:48:25.203Z,101144.78
2024-02-19T04:50:52.365Z,101141.59
2024-02-19T04:53:19.332Z,101132.03
2024-02-19T04:55:46.725Z,101134.50
2024-02-19T04:58:13.411Z,101135.91
2024-02-19T05:00:41.690Z,101141.53
2024-02-19T05:03:08.745Z,101150.47
2024-02-19T05:05:36.215Z,101146.41
2024-02-19T05:08:04.266Z,101146.50
2024-02-19T05:10:30.919Z,101157.44
2024-02-19T05:12:57.977Z,101157.44
2024-02-19T05:15:24.801Z,101158.06
2024-02-19T05:17:51.512Z,101154.16
2024-02-19T05:20:18.699Z,101157.91
2024-02-19T05:22:48.610Z,101157.69
2024-02-19T05:25:15.270Z,101163.59
2024-02-19T05:27:41.963Z,101159.81
2024-02-19T05:30:08.925Z,101156.09
2024-02-19T05:32:35.538Z,101166.13
2024-02-19T05:35:04.311Z,101170.97
2024-02-19T05:37:31.870Z,101172.63
2024-02-19T05:39:58.703Z,101177.69
2024-02-19T05:42:25.263Z,101173.88
2024-02-19T05:44:51.815Z,101172.63
2024-02-19T05:47:18.552Z,101173.59
2024-02-19T05:49:46.354Z,101172.69
2024-02-19T05:52:13.244Z,101166.09
2024-02-19T05:54:40.229Z,101180.59
2024-02-19T05:57:07.876Z,101181.34
2024-02-19T05:59:35.123Z,101181.88
2024-02-19T06:02:02.261Z,101184.19
2024-02-19T06:04:29.231Z,101179.09
2024-02-19T06:06:55.894Z,101179.03
2024-02-19T06:09:22.587Z,101183.59
2024-02-19T06:11:49.174Z,101183.28
2024-02-19T06:14:15.738Z,101188.81
2024-02-19T06:16:42.297Z,101192.88
2024-02-19T06:19:09.939Z,101196.69
2024-02-19T06:21:36.917Z,101201.38
2024-02-19T06:24:03.663Z,101198.06
2024-02-19T06:26:30.259Z,101208.50
2024-02-19T06:28:56.862Z,101216.88
2024-02-19T06:31:28.730Z,101215.00
2024-02-19T06:33:56.198Z,101216.03
2024-02-19T06:36:23.339Z,101221.34
2024-02-19T06:38:49.928Z,101225.09
2024-02-19T06:41:16.542Z,101228.63
2024-02-19T06:43:43.131Z,101233.06
2024-02-19T06:46:13.037Z,101244.69
2024-02-19T06:48:42.709Z,101233.84
2024-02-19T06:51:09.385Z,101240.44
2024-02-19T06:53:36.019Z,101240.34
2024-02-19T06:56:02.687Z,101243.94
2024-02-19T06:58:29.508Z,101253.31
2024-02-19T07:00:56.338Z,101253.72
2024-02-19T07:03:22.977Z,101251.81
2024-02-19T07:05:49.701Z,101257.44
2024-02-19T07:08:16.351Z,101260.75
2024-02-19T07:10:43.482Z,101251.00
2024-02-19T07:13:10.154Z,101254.75
2024-02-19T07:15:36.758Z,101265.66
2024-02-19T07:18:03.685Z,101273.59
2024-02-19T07:20:30.283Z,101267.53
2024-02-19T07:22:56.893Z,101274.09
2024-02-19T07:25:23.608Z,101279.31
2024-02-19T07:27:50.275Z,101279.81
2024-02-19T07:30:17.087Z,101285.88
2024-02-19T07:32:44.244Z,101276.34
2024-02-19T07:35:11.118Z,101296.44
2024-02-19T07:37:38.054Z,101291.25
2024-02-19T07:40:05.776Z,101290.44
2024-02-19T07:42:32.453Z,101301.88
2024-02-19T07:44:59.037Z,101293.38
2024-02-19T07:47:25.632Z,101291.41
2024-02-19T07:49:52.341Z,101290.84
2024-02-19T07:52:19.042Z,101289.78
2024-02-19T07:54:45.734Z,101289.78
2024-02-19T07:57:12.531Z,101295.16
2024-02-19T07:59:39.442Z,101290.59
2024-02-19T08:02:07.560Z,101291.25
2024-02-19T08:04:34.388Z,101291.13
2024-02-19T08:07:02.059Z,101290.09
2024-02-19T08:09:28.922Z,101292.88
2024-02-19T08:11:58.425Z,101294.25
2024-02-19T08:14:28.183Z,101295.00
2024-02-19T08:16:54.975Z,101300.28
2024-02-19T08:19:21.970Z,101302.38
2024-02-19T08:21:49.633Z,101307.59
2024-02-19T08:24:16.304Z,101311.72
2024-02-19T08:26:42.986Z,101318.88
2024-02-19T08:29:09.673Z,101318.78
2024-02-19T08:31:36.209Z,101316.41
2024-02-19T08:34:02.940Z,101315.72
2024-02-19T08:36:29.590Z,101322.50
2024-02-19T08:38:56.978Z,101316.19
2024-02-19T08:41:24.223Z,101312.19
2024-02-19T08:43:50.929Z,101311.72
2024-02-19T08:46:17.717Z,101313.22
2024-02-19T08:48:44.914Z,101311.63
2024-02-19T08:51:11.718Z,101312.91
2024-02-19T08:53:38.255Z,101314.59
2024-02-19T08:56:05.599Z,101308.63
2024-02-19T08:58:32.559Z,101319.59
2024-02-19T09:01:00.615Z,101317.03
2024-02-19T09:03:28.395Z,101316.53
2024-02-19T09:05:55.236Z,101315.84
2024-02-19T09:08:21.953Z,101314.38
2024-02-19T09:10:48.603Z,101317.63
2024-02-19T09:13:15.163Z,101316.47
2024-02-19T09:15:42.000Z,101313.75
2024-02-19T09:18:08.810Z,101316.50
2024-02-19T09:20:35.958Z,101310.56
2024-02-19T09:23:02.819Z,101309.38
2024-02-19T09:25:30.340Z,101315.44
2024-02-19T09:27:57.277Z,101308.94
2024-02-19T09:30:24.755Z,101313.41
2024-02-19T09:32:51.518Z,101327.25
2024-02-19T09:35:19.513Z,101319.28
2024-02-19T09:37:49.229Z,101328.94
2024-02-19T09:40:17.655Z,101323.56
2024-02-19T09:42:48.271Z,101322.75
2024-02-19T09:45:15.431Z,101320.31
2024-02-19T09:47:45.789Z,101329.16
2024-02-19T09:50:14.828Z,101325.69
2024-02-19T09:52:45.012Z,101331.97
2024-02-19T09:55:11.763Z,101325.94
2024-02-19T09:57:38.393Z,101325.94
2024-02-19T10:00:06.010Z,101331.91
2024-02-19T10:02:35.431Z,101329.81
2024-02-19T10:05:02.784Z,101341.78
2024-02-19T10:07:31.932Z,101336.88
2024-02-19T10:09:58.613Z,101344.16
2024-02-19T10:12:25.206Z,101332.75
2024-02-19T10:14:52.357Z,101338.81
2024-02-19T10:17:24.788Z,101341.59
2024-02-19T10:20:02.381Z,101340.13
2024-02-19T10:22:28.986Z,101344.38
2024-02-19T10:24:55.673Z,101335.28
2024-02-19T10:27:22.449Z,101336.88
2024-02-19T10:29:49.194Z,101332.38
2024-02-19T10:32:15.789Z,101330.78
2024-02-19T10:34:42.420Z,101334.56
2024-02-19T10:37:09.069Z,101330.00
2024-02-19T10:39:35.721Z,101320.44
2024-02-19T10:42:03.026Z,101322.38
2024-02-19T10:44:30.072Z,101319.22
2024-02-19T10:46:57.008Z,101316.75
2024-02-19T10:49:23.764Z,101337.31
2024-02-19T10:51:51.996Z,101325.63
2024-02-19T10:54:20.202Z,101333.19
2024-02-19T10:56:47.247Z,101329.66
2024-02-19T10:59:16.107Z,101324.69
2024-02-19T11:01:46.271Z,101321.31
2024-02-19T11:04:15.974Z,101322.13
2024-02-19T11:06:57.009Z,101323.78
2024-02-19T11:09:36.940Z,101321.31
2024-02-19T11:12:06.461Z,101318.59
2024-02-19T11:14:36.801Z,101328.53
2024-02-19T11:17:04.283Z,101328.47
2024-02-19T11:19:41.471Z,101321.66
2024-02-19T11:22:10.653Z,101313.97
2024-02-19T11:24:39.207Z,101317.13
2024-02-19T11:27:07.115Z,101321.09
2024-02-19T11:29:43.399Z,101327.81
2024-02-19T11:32:20.213Z,101326.31
2024-02-19T11:34:48.543Z,101317.88
2024-02-19T11:37:15.509Z,101320.34
2024-02-19T11:39:43.848Z,101314.97
2024-02-19T11:42:13.083Z,101314.38
2024-02-19T11:44:40.248Z,101317.84
2024-02-19T11:47:08.912Z,101317.00
2024-02-19T11:49:35.864Z,101312.25
2024-02-19T11:52:11.250Z,101295.63
2024-02-19T11:54:40.151Z,101305.69
2024-02-19T11:57:10.377Z,101294.22
2024-02-19T11:59:37.280Z,101293.44
2024-02-19T12:02:05.868Z,101283.72
2024-02-19T12:04:37.555Z,101281.81
2024-02-19T12:07:04.726Z,101288.97
2024-02-19T12:09:31.689Z,101287.63
2024-02-19T12:11:59.132Z,101287.06
2024-02-19T12:14:25.924Z,101283.91
2024-02-19T12:16:55.485Z,101285.72
2024-02-19T12:19:22.420Z,101286.03
2024-02-19T12:21:50.504Z,101286.22
2024-02-19T12:24:17.208Z,101278.78
2024-02-19T12:26:45.668Z,101281.59
2024-02-19T12:29:14.154Z,101272.66
2024-02-19T12:31:41.293Z,101262.66
2024-02-19T12:34:08.884Z,101274.03
2024-02-19T12:36:36.628Z,101262.03
2024-02-19T12:39:04.054Z,101269.75
2024-02-19T12:41:30.896Z,101268.38
2024-02-19T12:43:58.127Z,101258.38
2024-02-19T12:46:26.042Z,101251.66
2024-02-19T12:48:53.176Z,101249.16
2024-02-19T12:51:20.724Z,101255.13
2024-02-19T12:53:47.431Z,101255.84
2024-02-19T12:56:14.007Z,101249.66
2024-02-19T12:58:40.806Z,101244.56
2024-02-19T13:01:20.292Z,101242.28
2024-02-19T13:03:54.654Z,101238.22
2024-02-19T13:06:21.642Z,101232.50
2024-02-19T13:08:49.020Z,101226.38
2024-02-19T13:11:15.976Z,101221.16
2024-02-19T13:13:42.957Z,101222.16
2024-02-19T13:16:09.702Z,101222.59
2024-02-19T13:18:37.334Z,101224.13
2024-02-19T13:21:04.879Z,101224.41
2024-02-19T13:23:31.647Z,101219.66
2024-02-19T13:25:58.275Z,101221.03
2024-02-19T13:28:24.899Z,101208.09
2024-02-19T13:30:51.619Z,101217.94
2024-02-19T13:33:19.242Z,101214.78
2024-02-19T13:35:46.016Z,101212.81
2024-02-19T13:38:13.919Z,101218.53
2024-02-19T13:40:40.696Z,101212.50
2024-02-19T13:43:07.520Z,101213.34
2024-02-19T13:46:04.549Z,101222.13
2024-02-19T13:48:32.028Z,101218.38
2024-02-19T13:50:59.447Z,101207.41
2024-02-19T13:53:29.184Z,101212.84
2024-02-19T13:55:58.018Z,101209.34
2024-02-19T13:58:26.327Z,101207.50
2024-02-19T14:00:59.219Z,101208.69
2024-02-19T14:03:26.258Z,101199.56
2024-02-19T14:05:53.270Z,101203.13
2024-02-19T14:08:20.944Z,101195.78
2024-02-19T14:10:52.804Z,101190.63
2024-02-19T14:13:20.435Z,101199.53
2024-02-19T14:15:47.435Z,101201.53
2024-02-19T14:18:14.318Z,101196.03
2024-02-19T14:20:40.971Z,101191.56
2024-02-19T14:23:10.129Z,101201.63
2024-02-19T14:25:37.086Z,101189.06
2024-02-19T14:28:05.267Z,101193.72
2024-02-19T14:30:32.459Z,101182.13
2024-02-19T14:32:59.675Z,101183.69
2024-02-19T14:35:26.598Z,101185.31
2024-02-19T14:37:54.904Z,101188.84
2024-02-19T14:40:21.709Z,101184.38
2024-02-19T14:42:49.519Z,101174.56
2024-02-19T14:45:16.964Z,101190.44
2024-02-19T14:47:46.551Z,101186.56
2024-02-19T14:50:14.538Z,101189.78
2024-02-19T14:52:42.235Z,101180.53
2024-02-19T14:55:10.962Z,101182.75
2024-02-19T14:57:47.131Z,101179.88
2024-02-19T15:00:21.332Z,101183.81
2024-02-19T15:02:49.078Z,101186.47
2024-02-19T15:05:16.069Z,101180.63
2024-02-19T15:07:45.447Z,101179.16
2024-02-19T15:10:15.911Z,101184.94
2024-02-19T15:12:42.705Z,101181.56
2024-02-19T15:15:10.135Z,101186.16
2024-02-19T15:17:36.890Z,101183.69
2024-02-19T15:20:04.082Z,101185.91
2024-02-19T15:22:30.912Z,101186.72
2024-02-19T15:24:57.645Z,101184.09
2024-02-19T15:27:27.356Z,101191.72
2024-02-19T15:29:58.135Z,101177.94
2024-02-19T15:32:25.542Z,101190.88
2024-02-19T15:34:54.225Z,101190.69
2024-02-19T15:37:21.652Z,101190.53
2024-02-19T15:39:48.420Z,101185.28
2024-02-19T15:42:14.986Z,101197.66
2024-02-19T15:44:44.021Z,101198.91
2024-02-19T15:47:10.679Z,101191.41
2024-02-19T15:49:37.384Z,101187.53
2024-02-19T15:52:04.348Z,101187.22
2024-02-19T15:54:30.969Z,101189.06
2024-02-19T15:56:57.631Z,101183.72
2024-02-19T15:59:24.307Z,101189.94
2024-02-19T16:01:53.070Z,101188.84
2024-02-19T16:04:20.658Z,101184.16
2024-02-19T16:06:50.988Z,101175.78
2024-02-19T16:09:17.642Z,101171.34
2024-02-19T16:11:44.415Z,101172.72
2024-02-19T16:14:11.087Z,101172.13
2024-02-19T16:16:38.364Z,101174.00
2024-02-19T16:19:05.262Z,101175.75
2024-02-19T16:21:33.163Z,101164.41
2024-02-19T16:23:59.751Z,101168.13
2024-02-19T16:26:27.104Z,101170.25
2024-02-19T16:28:54.552Z,101169.88
2024-02-19T16:31:21.161Z,101160.16
2024-02-19T16:33:48.367Z,101169.91
2024-02-19T16:36:15.317Z,101173.16
2024-02-19T16:38:44.079Z,101166.13
2024-02-19T16:41:10.843Z,101161.38
2024-02-19T16:43:37.652Z,101175.78
2024-02-19T16:46:06.016Z,101173.38
2024-02-19T16:48:40.206Z,101179.66
2024-02-19T16:51:08.210Z,101176.19
2024-02-19T16:53:35.450Z,101176.81
2024-02-19T16:56:03.711Z,101179.34
2024-02-19T16:58:33.413Z,101177.91
2024-02-19T17:01:03.480Z,101181.53
2024-02-19T17:03:30.467Z,101183.03
2024-02-19T17:05:57.392Z,101181.25
2024-02-19T17:08:26.982Z,101176.94
2024-02-19T17:10:54.456Z,101173.22
2024-02-19T17:13:21.187Z,101181.31
2024-02-19T17:15:48.019Z,101177.03
2024-02-19T17:18:18.656Z,101177.16
2024-02-19T17:20:45.538Z,101190.31
2024-02-19T17:23:15.333Z,101193.75
2024-02-19T17:25:42.222Z,101188.06
2024-02-19T17:28:09.238Z,101187.00
2024-02-19T17:30:36.088Z,101195.66
2024-02-19T17:33:02.814Z,101175.34
2024-02-19T17:35:31.121Z,101176.31
2024-02-19T17:37:58.291Z,101176.53
2024-02-19T17:40:25.104Z,101180.78
2024-02-19T17:42:52.128Z,101184.25
2024-02-19T17:45:19.332Z,101176.19
2024-02-19T17:47:49.319Z,101180.34
2024-02-19T17:50:16.171Z,101175.63
2024-02-19T17:52:45.983Z,101183.25
2024-02-19T17:55:12.792Z,101175.88
2024-02-19T17:57:40.400Z,101177.25
2024-02-19T18:00:10.270Z,101174.78
2024-02-19T18:02:40.111Z,101178.81
2024-02-19T18:05:07.095Z,101178.94
2024-02-19T18:07:33.775Z,101168.88
2024-02-19T18:10:00.704Z,101171.06
2024-02-19T18:12:27.668Z,101174.34
2024-02-19T18:14:54.514Z,101164.59
2024-02-19T18:17:21.152Z,101156.84
2024-02-19T18:19:48.834Z,101169.22
2024-02-19T18:22:15.531Z,101168.59
2024-02-19T18:24:42.323Z,101164.97
2024-02-19T18:27:09.491Z,101168.63
2024-02-19T18:29:36.865Z,101164.50
2024-02-19T18:32:03.669Z,101165.50
2024-02-19T18:34:31.816Z,101174.50
2024-02-19T18:37:00.184Z,101168.38
2024-02-19T18:39:29.029Z,101166.38
2024-02-19T18:41:57.730Z,101163.81
2024-02-19T18:44:24.474Z,101168.63
2024-02-19T18:46:51.088Z,101168.91
2024-02-19T18:49:18.352Z,101169.41
2024-02-19T18:51:47.324Z,101173.34
2024-02-19T18:54:15.483Z,101171.47
2024-02-19T18:56:42.323Z,101165.78
2024-02-19T18:59:09.189Z,101169.41
2024-02-19T19:01:36.301Z,101158.50
2024-02-19T19:04:04.089Z,101167.75
2024-02-19T19:06:31.376Z,101172.34
2024-02-19T19:09:04.202Z,101159.63
2024-02-19T19:11:30.909Z,101160.69
2024-02-19T19:13:57.724Z,101160.53
2024-02-19T19:16:24.537Z,101155.53
2024-02-19T19:18:52.438Z,101164.22
2024-02-19T19:21:20.146Z,101165.19
2024-02-19T19:23:48.956Z,101161.06
2024-02-19T19:26:15.656Z,101156.56
2024-02-19T19:28:42.295Z,101153.53
2024-02-19T19:31:09.075Z,101160.94
2024-02-19T19:33:36.058Z,101163.38
2024-02-19T19:36:03.063Z,101171.63
2024-02-19T19:38:30.556Z,101160.44
2024-02-19T19:40:57.997Z,101171.09
2024-02-19T19:43:25.145Z,101169.47
2024-02-19T19:45:54.240Z,101168.38
2024-02-19T19:48:28.103Z,101162.56
2024-02-19T19:50:56.356Z,101162.22
2024-02-19T19:53:24.070Z,101170.22
2024-02-19T19:55:55.017Z,101166.19
2024-02-19T19:58:31.005Z,101166.19
2024-02-19T20:00:59.995Z,101163.34
2024-02-19T20:03:26.958Z,101164.69
2024-02-19T20:05:54.280Z,101166.66
2024-02-19T20:08:21.315Z,101165.28
2024-02-19T20:10:48.439Z,101164.19
2024-02-19T20:13:15.554Z,101163.97
2024-02-19T20:15:42.232Z,101170.38
2024-02-19T20:18:10.074Z,101170.16
2024-02-19T20:20:36.939Z,101177.97
2024-02-19T20:23:03.797Z,101176.78
2024-02-19T20:25:31.783Z,101178.16
2024-02-19T20:28:05.407Z,101177.53
2024-02-19T20:30:32.057Z,101177.53
2024-02-19T20:32:58.664Z,101180.34
2024-02-19T20:35:27.023Z,101187.16
2024-02-19T20:37:53.801Z,101184.59
2024-02-19T20:40:20.514Z,101187.56
2024-02-19T20:42:53.220Z,101189.94
2024-02-19T20:45:20.784Z,101194.97
2024-02-19T20:47:47.857Z,101198.75
2024-02-19T20:50:15.402Z,101196.19
2024-02-19T20:52:44.779Z,101196.03
2024-02-19T20:55:12.781Z,101196.03
2024-02-19T20:57:39.374Z,101203.78
2024-02-19T21:00:11.156Z,101199.28
2024-02-19T21:02:40.868Z,101201.34
2024-02-19T21:05:14.658Z,101190.56
2024-02-19T21:07:44.923Z,101195.50
2024-02-19T21:10:13.984Z,101201.56
2024-02-19T21:12:43.874Z,101202.16
2024-02-19T21:15:16.127Z,101197.31
2024-02-19T21:17:42.810Z,101194.59
2024-02-19T21:20:11.753Z,101195.09
2024-02-19T21:22:39.270Z,101186.38
2024-02-19T21:25:06.619Z,101185.63
2024-02-19T21:27:33.230Z,101190.19
2024-02-19T21:29:59.813Z,101188.06
2024-02-19T21:32:26.868Z,101196.38
2024-02-19T21:34:54.027Z,101199.88
2024-02-19T21:37:21.093Z,101201.94
2024-02-19T21:39:47.787Z,101201.38
2024-02-19T21:42:20.573Z,101203.47
2024-02-19T21:44:49.967Z,101203.16
2024-02-19T21:47:16.574Z,101205.47
2024-02-19T21:49:43.553Z,101200.00
2024-02-19T21:52:10.304Z,101193.91
2024-02-19T21:54:36.905Z,101197.88
2024-02-19T21:57:05.558Z,101200.00
2024-02-19T21:59:32.271Z,101195.34
2024-02-19T22:01:59.466Z,101197.19
2024-02-19T22:04:26.331Z,101205.97
2024-02-19T22:06:53.079Z,101199.47
2024-02-19T22:09:19.746Z,101206.25
2024-02-19T22:11:46.798Z,101204.19
2024-02-19T22:14:15.323Z,101204.94
2024-02-19T22:16:41.962Z,101205.66
2024-02-19T22:19:08.751Z,101212.34
2024-02-19T22:21:35.752Z,101210.00
2024-02-19T22:24:02.375Z,101210.59
2024-02-19T22:26:28.968Z,101208.94
2024-02-19T22:28:55.538Z,101210.72
2024-02-19T22:31:22.204Z,101209.91
2024-02-19T22:33:49.244Z,101204.34
2024-02-19T22:36:15.951Z,101216.03
2024-02-19T22:38:42.491Z,101208.78
2024-02-19T22:41:09.392Z,101205.94
2024-02-19T22:43:35.983Z,101214.94
2024-02-19T22:46:02.653Z,101216.44
2024-02-19T22:48:29.499Z,101216.69
2024-02-19T22:50:56.107Z,101211.31
2024-02-19T22:53:22.668Z,101224.56
2024-02-19T22:55:49.220Z,101221.94
2024-02-19T22:58:28.980Z,101217.78
2024-02-19T23:00:59.760Z,101225.13
2024-02-19T23:03:26.521Z,101224.56
2024-02-19T23:05:53.292Z,101224.16
2024-02-19T23:08:20.291Z,101228.94
2024-02-19T23:10:46.958Z,101231.16
2024-02-19T23:13:14.054Z,101234.66
2024-02-19T23:15:42.458Z,101251.63
2024-02-19T23:18:09.151Z,101246.19
2024-02-19T23:20:36.204Z,101252.03
2024-02-19T23:23:03.398Z,101254.16
2024-02-19T23:25:30.003Z,101252.03
2024-02-19T23:27:58.527Z,101256.47
2024-02-19T23:30:25.828Z,101261.63
2024-02-19T23:32:52.548Z,101259.06
2024-02-19T23:35:19.236Z,101261.09
2024-02-19T23:37:46.808Z,101262.75
2024-02-19T23:40:17.826Z,101260.50
2024-02-19T23:42:45.753Z,101271.47
2024-02-19T23:45:12.695Z,101273.97
2024-02-19T23:47:40.510Z,101264.97
2024-02-19T23:50:09.261Z,101270.34
2024-02-19T23:52:36.553Z,101267.00
2024-02-19T23:55:03.976Z,101273.41
2024-02-19T23:57:30.611Z,101270.13
2024-02-19T23:59:57.197Z,101258.59
